sensor_id;sensor_type;location;lat;lon;timestamp;pressure;altitude;pressure_sealevel;temperature;humidity
74936;BME280;63501;55.570;37.488;2023-11-19T00:00:58;99781.25;;;25.03;20.43
74936;BME280;63501;55.570;37.488;2023-11-19T00:03:26;99778.59;;;25.00;20.05
74936;BME280;63501;55.570;37.488;2023-11-19T00:05:56;99781.59;;;24.96;20.44
74936;BME280;63501;55.570;37.488;2023-11-19T00:08:22;99769.09;;;24.88;20.32
74936;BME280;63501;55.570;37.488;2023-11-19T00:10:50;99779.44;;;24.91;20.04
74936;BME280;63501;55.570;37.488;2023-11-19T00:13:17;99767.03;;;24.89;20.06
74936;BME280;63501;55.570;37.488;2023-11-19T00:15:43;99764.72;;;24.87;20.08
74936;BME280;63501;55.570;37.488;2023-11-19T00:18:12;99764.88;;;24.84;20.29
74936;BME280;63501;55.570;37.488;2023-11-19T00:20:41;99760.97;;;24.81;20.33
74936;BME280;63501;55.570;37.488;2023-11-19T00:23:10;99769.13;;;24.79;20.14
74936;BME280;63501;55.570;37.488;2023-11-19T00:25:36;99766.81;;;24.77;20.56
74936;BME280;63501;55.570;37.488;2023-11-19T00:28:04;99762.09;;;24.74;20.34
74936;BME280;63501;55.570;37.488;2023-11-19T00:30:30;99768.25;;;24.73;20.60
74936;BME280;63501;55.570;37.488;2023-11-19T00:32:57;99752.53;;;24.72;20.33
74936;BME280;63501;55.570;37.488;2023-11-19T00:35:24;99761.50;;;24.70;20.26
74936;BME280;63501;55.570;37.488;2023-11-19T00:37:52;99753.50;;;24.69;20.52
74936;BME280;63501;55.570;37.488;2023-11-19T00:40:19;99757.59;;;24.68;20.68
74936;BME280;63501;55.570;37.488;2023-11-19T00:42:48;99747.25;;;24.65;20.66
74936;BME280;63501;55.570;37.488;2023-11-19T00:45:15;99747.25;;;24.65;20.76
74936;BME280;63501;55.570;37.488;2023-11-19T00:47:42;99739.72;;;24.62;20.70
74936;BME280;63501;55.570;37.488;2023-11-19T00:50:09;99738.94;;;24.61;20.28
74936;BME280;63501;55.570;37.488;2023-11-19T00:52:36;99735.34;;;24.61;20.29
74936;BME280;63501;55.570;37.488;2023-11-19T00:55:05;99734.56;;;24.60;20.28
74936;BME280;63501;55.570;37.488;2023-11-19T00:57:32;99732.22;;;24.59;20.56
74936;BME280;63501;55.570;37.488;2023-11-19T00:59:59;99733.47;;;24.58;20.54
74936;BME280;63501;55.570;37.488;2023-11-19T01:02:26;99733.94;;;24.56;20.66
74936;BME280;63501;55.570;37.488;2023-11-19T01:04:53;99735.22;;;24.55;20.49
74936;BME280;63501;55.570;37.488;2023-11-19T01:07:21;99730.06;;;24.53;20.32
74936;BME280;63501;55.570;37.488;2023-11-19T01:09:49;99733.34;;;24.52;20.24
74936;BME280;63501;55.570;37.488;2023-11-19T01:12:17;99722.84;;;24.52;20.51
74936;BME280;63501;55.570;37.488;2023-11-19T01:14:44;99714.81;;;24.51;20.79
74936;BME280;63501;55.570;37.488;2023-11-19T01:17:11;99716.09;;;24.50;20.71
74936;BME280;63501;55.570;37.488;2023-11-19T01:19:37;99710.94;;;24.48;20.63
74936;BME280;63501;55.570;37.488;2023-11-19T01:22:04;99700.88;;;24.47;20.74
74936;BME280;63501;55.570;37.488;2023-11-19T01:24:31;99701.34;;;24.46;20.84
74936;BME280;63501;55.570;37.488;2023-11-19T01:26:58;99710.59;;;24.46;20.44
74936;BME280;63501;55.570;37.488;2023-11-19T01:29:26;99711.09;;;24.45;20.67
74936;BME280;63501;55.570;37.488;2023-11-19T01:31:53;99711.59;;;24.43;20.87
74936;BME280;63501;55.570;37.488;2023-11-19T01:34:20;99716.47;;;24.43;20.61
74936;BME280;63501;55.570;37.488;2023-11-19T01:36:46;99714.13;;;24.41;20.63
74936;BME280;63501;55.570;37.488;2023-11-19T01:39:14;99711.28;;;24.41;20.79
74936;BME280;63501;55.570;37.488;2023-11-19T01:41:41;99704.81;;;24.41;20.77
74936;BME280;63501;55.570;37.488;2023-11-19T01:46:45;99705.81;;;24.38;20.79
74936;BME280;63501;55.570;37.488;2023-11-19T01:49:14;99706.59;;;24.38;20.77
74936;BME280;63501;55.570;37.488;2023-11-19T01:51:42;99698.59;;;24.37;20.85
74936;BME280;63501;55.570;37.488;2023-11-19T01:54:09;99703.47;;;24.36;20.73
74936;BME280;63501;55.570;37.488;2023-11-19T01:56:36;99690.56;;;24.35;20.82
74936;BME280;63501;55.570;37.488;2023-11-19T01:59:03;99689.00;;;24.34;20.77
74936;BME280;63501;55.570;37.488;2023-11-19T02:01:30;99691.03;;;24.34;20.79
74936;BME280;63501;55.570;37.488;2023-11-19T02:04:01;99691.53;;;24.32;20.48
74936;BME280;63501;55.570;37.488;2023-11-19T02:06:29;99695.63;;;24.31;20.42
74936;BME280;63501;55.570;37.488;2023-11-19T02:08:58;99698.44;;;24.31;20.78
74936;BME280;63501;55.570;37.488;2023-11-19T02:11:25;99692.47;;;24.29;20.75
74936;BME280;63501;55.570;37.488;2023-11-19T02:13:54;99708.19;;;24.30;20.83
74936;BME280;63501;55.570;37.488;2023-11-19T02:16:21;99700.94;;;24.29;21.03
74936;BME280;63501;55.570;37.488;2023-11-19T02:18:48;99702.22;;;24.28;20.80
74936;BME280;63501;55.570;37.488;2023-11-19T02:21:16;99695.78;;;24.27;20.62
74936;BME280;63501;55.570;37.488;2023-11-19T02:23:43;99690.13;;;24.27;20.63
74936;BME280;63501;55.570;37.488;2023-11-19T02:26:13;99692.19;;;24.27;20.58
74936;BME280;63501;55.570;37.488;2023-11-19T02:28:42;99690.63;;;24.26;20.65
74936;BME280;63501;55.570;37.488;2023-11-19T02:31:09;99690.63;;;24.26;20.93
74936;BME280;63501;55.570;37.488;2023-11-19T02:33:36;99697.53;;;24.25;20.88
74936;BME280;63501;55.570;37.488;2023-11-19T02:36:03;99696.75;;;24.24;20.83
74936;BME280;63501;55.570;37.488;2023-11-19T02:38:32;99693.13;;;24.24;20.90
74936;BME280;63501;55.570;37.488;2023-11-19T02:40:59;99696.75;;;24.24;20.71
74936;BME280;63501;55.570;37.488;2023-11-19T02:43:27;99694.72;;;24.25;21.06
74936;BME280;63501;55.570;37.488;2023-11-19T02:45:58;99694.72;;;24.25;20.63
74936;BME280;63501;55.570;37.488;2023-11-19T02:48:26;99682.63;;;24.24;20.99
74936;BME280;63501;55.570;37.488;2023-11-19T02:50:53;99682.13;;;24.26;20.85
74936;BME280;63501;55.570;37.488;2023-11-19T02:53:19;99689.06;;;24.25;20.95
74936;BME280;63501;55.570;37.488;2023-11-19T02:55:47;99694.72;;;24.25;20.77
74936;BME280;63501;55.570;37.488;2023-11-19T02:58:15;99697.53;;;24.25;20.76
74936;BME280;63501;55.570;37.488;2023-11-19T03:00:49;99694.72;;;24.25;20.73
74936;BME280;63501;55.570;37.488;2023-11-19T03:03:23;99683.88;;;24.23;20.77
74936;BME280;63501;55.570;37.488;2023-11-19T03:05:54;99689.50;;;24.23;20.89
74936;BME280;63501;55.570;37.488;2023-11-19T03:08:20;99690.28;;;24.24;20.93
74936;BME280;63501;55.570;37.488;2023-11-19T03:10:47;99687.47;;;24.24;20.74
74936;BME280;63501;55.570;37.488;2023-11-19T03:13:15;99674.63;;;24.23;20.77
74936;BME280;63501;55.570;37.488;2023-11-19T03:15:42;99678.22;;;24.23;20.99
74936;BME280;63501;55.570;37.488;2023-11-19T03:18:09;99677.44;;;24.23;20.72
74936;BME280;63501;55.570;37.488;2023-11-19T03:20:37;99676.16;;;24.24;21.03
74936;BME280;63501;55.570;37.488;2023-11-19T03:23:04;99668.97;;;24.23;20.92
74936;BME280;63501;55.570;37.488;2023-11-19T03:25:31;99668.19;;;24.22;20.84
74936;BME280;63501;55.570;37.488;2023-11-19T03:27:59;99670.22;;;24.22;20.92
74936;BME280;63501;55.570;37.488;2023-11-19T03:30:27;99671.78;;;24.23;21.01
74936;BME280;63501;55.570;37.488;2023-11-19T03:32:54;99671.00;;;24.22;20.74
74936;BME280;63501;55.570;37.488;2023-11-19T03:35:21;99669.44;;;24.21;20.75
74936;BME280;63501;55.570;37.488;2023-11-19T03:37:49;99667.88;;;24.20;20.89
74936;BME280;63501;55.570;37.488;2023-11-19T03:40:16;99663.03;;;24.21;20.84
74936;BME280;63501;55.570;37.488;2023-11-19T03:42:45;99658.16;;;24.21;20.94
74936;BME280;63501;55.570;37.488;2023-11-19T03:45:12;99658.16;;;24.21;20.88
74936;BME280;63501;55.570;37.488;2023-11-19T03:47:39;99660.97;;;24.21;20.96
74936;BME280;63501;55.570;37.488;2023-11-19T03:52:51;99653.28;;;24.22;20.81
74936;BME280;63501;55.570;37.488;2023-11-19T03:55:18;99658.94;;;24.22;21.14
74936;BME280;63501;55.570;37.488;2023-11-19T03:57:45;99652.00;;;24.23;21.33
74936;BME280;63501;55.570;37.488;2023-11-19T04:00:14;99641.97;;;24.22;21.30
74936;BME280;63501;55.570;37.488;2023-11-19T04:02:41;99635.06;;;24.23;21.64
74936;BME280;63501;55.570;37.488;2023-11-19T04:05:07;99632.22;;;24.23;21.52
74936;BME280;63501;55.570;37.488;2023-11-19T04:07:35;99628.13;;;24.24;21.60
74936;BME280;63501;55.570;37.488;2023-11-19T04:10:03;99634.59;;;24.24;21.72
74936;BME280;63501;55.570;37.488;2023-11-19T04:12:30;99631.78;;;24.24;21.73
74936;BME280;63501;55.570;37.488;2023-11-19T04:14:57;99628.13;;;24.24;21.47
74936;BME280;63501;55.570;37.488;2023-11-19T04:17:24;99622.50;;;24.24;21.91
74936;BME280;63501;55.570;37.488;2023-11-19T04:19:51;99621.72;;;24.23;21.67
74936;BME280;63501;55.570;37.488;2023-11-19T04:22:17;99618.09;;;24.23;21.98
74936;BME280;63501;55.570;37.488;2023-11-19T04:24:44;99610.91;;;24.22;21.66
74936;BME280;63501;55.570;37.488;2023-11-19T04:27:12;99613.72;;;24.22;21.72
74936;BME280;63501;55.570;37.488;2023-11-19T04:29:40;99612.94;;;24.21;21.90
74936;BME280;63501;55.570;37.488;2023-11-19T04:32:06;99616.25;;;24.20;21.89
74936;BME280;63501;55.570;37.488;2023-11-19T04:34:34;99626.00;;;24.19;21.95
74936;BME280;63501;55.570;37.488;2023-11-19T04:37:01;99620.81;;;24.17;21.91
74936;BME280;63501;55.570;37.488;2023-11-19T04:39:28;99629.28;;;24.17;21.68
74936;BME280;63501;55.570;37.488;2023-11-19T04:41:55;99626.94;;;24.16;21.35
74936;BME280;63501;55.570;37.488;2023-11-19T04:44:23;99637.47;;;24.15;21.58
74936;BME280;63501;55.570;37.488;2023-11-19T04:46:50;99640.78;;;24.14;21.80
74936;BME280;63501;55.570;37.488;2023-11-19T04:49:17;99647.22;;;24.14;21.67
74936;BME280;63501;55.570;37.488;2023-11-19T04:51:44;99639.19;;;24.13;21.59
74936;BME280;63501;55.570;37.488;2023-11-19T04:54:12;99630.72;;;24.13;21.47
74936;BME280;63501;55.570;37.488;2023-11-19T04:56:39;99633.53;;;24.13;21.80
74936;BME280;63501;55.570;37.488;2023-11-19T04:59:06;99624.28;;;24.12;21.89
74936;BME280;63501;55.570;37.488;2023-11-19T05:01:35;99617.09;;;24.11;21.57
74936;BME280;63501;55.570;37.488;2023-11-19T05:04:02;99626.03;;;24.10;21.69
74936;BME280;63501;55.570;37.488;2023-11-19T05:06:29;99629.34;;;24.08;21.49
74936;BME280;63501;55.570;37.488;2023-11-19T05:08:56;99636.25;;;24.07;21.75
74936;BME280;63501;55.570;37.488;2023-11-19T05:11:23;99635.47;;;24.07;21.46
74936;BME280;63501;55.570;37.488;2023-11-19T05:13:50;99635.19;;;24.05;21.52
74936;BME280;63501;55.570;37.488;2023-11-19T05:16:16;99638.50;;;24.03;21.60
74936;BME280;63501;55.570;37.488;2023-11-19T05:18:45;99640.53;;;24.02;21.61
74936;BME280;63501;55.570;37.488;2023-11-19T05:21:12;99653.06;;;24.01;20.71
74936;BME280;63501;55.570;37.488;2023-11-19T05:23:39;99647.13;;;23.99;21.58
74936;BME280;63501;55.570;37.488;2023-11-19T05:26:07;99659.97;;;24.00;21.49
74936;BME280;63501;55.570;37.488;2023-11-19T05:28:34;99655.59;;;23.99;21.32
74936;BME280;63501;55.570;37.488;2023-11-19T05:31:01;99635.81;;;23.99;21.23
74936;BME280;63501;55.570;37.488;2023-11-19T05:33:28;99639.91;;;23.98;21.37
74936;BME280;63501;55.570;37.488;2023-11-19T05:35:56;99640.69;;;23.99;21.55
74936;BME280;63501;55.570;37.488;2023-11-19T05:38:23;99646.34;;;23.99;21.42
74936;BME280;63501;55.570;37.488;2023-11-19T05:40:49;99644.31;;;23.99;21.69
74936;BME280;63501;55.570;37.488;2023-11-19T05:43:16;99644.78;;;23.98;21.77
74936;BME280;63501;55.570;37.488;2023-11-19T05:45:43;99645.56;;;23.98;21.60
74936;BME280;63501;55.570;37.488;2023-11-19T05:48:10;99639.13;;;23.98;21.55
74936;BME280;63501;55.570;37.488;2023-11-19T05:50:37;99641.97;;;23.98;21.57
74936;BME280;63501;55.570;37.488;2023-11-19T05:53:06;99640.69;;;23.99;21.69
74936;BME280;63501;55.570;37.488;2023-11-19T05:55:36;99638.66;;;23.99;21.98
74936;BME280;63501;55.570;37.488;2023-11-19T05:58:10;99637.88;;;23.99;21.64
74936;BME280;63501;55.570;37.488;2023-11-19T06:00:38;99645.56;;;23.98;21.87
74936;BME280;63501;55.570;37.488;2023-11-19T06:03:05;99634.28;;;23.98;21.64
74936;BME280;63501;55.570;37.488;2023-11-19T06:05:32;99642.75;;;23.98;21.77
74936;BME280;63501;55.570;37.488;2023-11-19T06:07:59;99641.19;;;23.97;21.92
74936;BME280;63501;55.570;37.488;2023-11-19T06:10:28;99630.66;;;23.98;21.79
74936;BME280;63501;55.570;37.488;2023-11-19T06:12:57;99636.00;;;23.96;21.83
74936;BME280;63501;55.570;37.488;2023-11-19T06:15:25;99637.59;;;23.97;21.62
74936;BME280;63501;55.570;37.488;2023-11-19T06:17:51;99631.16;;;23.96;21.79
74936;BME280;63501;55.570;37.488;2023-11-19T06:20:18;99636.81;;;23.96;21.86
74936;BME280;63501;55.570;37.488;2023-11-19T06:22:46;99644.00;;;23.97;21.69
74936;BME280;63501;55.570;37.488;2023-11-19T06:25:16;99636.81;;;23.96;21.54
74936;BME280;63501;55.570;37.488;2023-11-19T06:27:45;99621.88;;;23.96;21.72
74936;BME280;63501;55.570;37.488;2023-11-19T06:30:12;99629.88;;;23.97;21.79
74936;BME280;63501;55.570;37.488;2023-11-19T06:32:39;99627.53;;;23.96;21.83
74936;BME280;63501;55.570;37.488;2023-11-19T06:35:06;99623.91;;;23.95;21.99
74936;BME280;63501;55.570;37.488;2023-11-19T06:37:33;99626.28;;;23.97;22.41
74936;BME280;63501;55.570;37.488;2023-11-19T06:40:00;99621.41;;;23.97;22.25
74936;BME280;63501;55.570;37.488;2023-11-19T06:42:27;99630.66;;;23.98;22.45
74936;BME280;63501;55.570;37.488;2023-11-19T06:44:55;99627.84;;;23.98;22.74
74936;BME280;63501;55.570;37.488;2023-11-19T06:47:24;99627.34;;;23.99;22.71
74936;BME280;63501;55.570;37.488;2023-11-19T06:49:51;99627.34;;;23.99;22.71
74936;BME280;63501;55.570;37.488;2023-11-19T06:52:18;99616.06;;;23.99;22.96
74936;BME280;63501;55.570;37.488;2023-11-19T06:54:45;99616.84;;;24.00;23.17
74936;BME280;63501;55.570;37.488;2023-11-19T06:57:12;99625.31;;;24.00;23.04
74936;BME280;63501;55.570;37.488;2023-11-19T06:59:39;99627.66;;;24.01;23.50
74936;BME280;63501;55.570;37.488;2023-11-19T07:02:08;99630.78;;;24.04;23.69
74936;BME280;63501;55.570;37.488;2023-11-19T07:04:35;99626.69;;;24.05;23.92
74936;BME280;63501;55.570;37.488;2023-11-19T07:07:02;99628.25;;;24.06;23.81
74936;BME280;63501;55.570;37.488;2023-11-19T07:09:30;99636.25;;;24.07;24.05
74936;BME280;63501;55.570;37.488;2023-11-19T07:11:58;99626.81;;;24.10;24.24
74936;BME280;63501;55.570;37.488;2023-11-19T07:14:25;99630.72;;;24.13;24.24
74936;BME280;63501;55.570;37.488;2023-11-19T07:16:53;99628.22;;;24.15;24.45
74936;BME280;63501;55.570;37.488;2023-11-19T07:19:22;99633.88;;;24.15;24.73
74936;BME280;63501;55.570;37.488;2023-11-19T07:21:49;99631.31;;;24.17;24.78
74936;BME280;63501;55.570;37.488;2023-11-19T07:24:16;99625.19;;;24.18;24.85
74936;BME280;63501;55.570;37.488;2023-11-19T07:26:43;99627.56;;;24.20;24.84
74936;BME280;63501;55.570;37.488;2023-11-19T07:29:10;99623.75;;;24.23;24.87
74936;BME280;63501;55.570;37.488;2023-11-19T07:31:37;99633.78;;;24.24;25.18
74936;BME280;63501;55.570;37.488;2023-11-19T07:34:03;99629.25;;;24.26;25.29
74936;BME280;63501;55.570;37.488;2023-11-19T07:36:33;99623.09;;;24.28;24.95
74936;BME280;63501;55.570;37.488;2023-11-19T07:39:01;99617.44;;;24.28;25.26
74936;BME280;63501;55.570;37.488;2023-11-19T07:41:28;99622.16;;;24.31;25.23
74936;BME280;63501;55.570;37.488;2023-11-19T07:43:55;99610.84;;;24.31;25.42
74936;BME280;63501;55.570;37.488;2023-11-19T07:46:22;99623.72;;;24.32;25.19
74936;BME280;63501;55.570;37.488;2023-11-19T07:48:50;99613.97;;;24.33;25.30
74936;BME280;63501;55.570;37.488;2023-11-19T07:51:17;99632.47;;;24.34;25.58
74936;BME280;63501;55.570;37.488;2023-11-19T07:53:45;99626.38;;;24.36;25.25
74936;BME280;63501;55.570;37.488;2023-11-19T07:56:12;99630.00;;;24.36;25.19
74936;BME280;63501;55.570;37.488;2023-11-19T07:58:39;99625.91;;;24.37;25.53
74936;BME280;63501;55.570;37.488;2023-11-19T08:01:06;99614.88;;;24.39;25.64
74936;BME280;63501;55.570;37.488;2023-11-19T08:03:38;99607.19;;;24.40;25.64
74936;BME280;63501;55.570;37.488;2023-11-19T08:06:05;99610.31;;;24.42;25.41
74936;BME280;63501;55.570;37.488;2023-11-19T08:08:32;99611.09;;;24.42;25.58
74936;BME280;63501;55.570;37.488;2023-11-19T08:11:01;99608.56;;;24.44;25.21
74936;BME280;63501;55.570;37.488;2023-11-19T08:13:28;99610.91;;;24.46;25.55
74936;BME280;63501;55.570;37.488;2023-11-19T08:15:55;99610.44;;;24.47;25.79
74936;BME280;63501;55.570;37.488;2023-11-19T08:18:23;99605.06;;;24.49;25.73
74936;BME280;63501;55.570;37.488;2023-11-19T08:20:50;99604.13;;;24.52;25.71
74936;BME280;63501;55.570;37.488;2023-11-19T08:23:18;99602.06;;;24.53;25.28
74936;BME280;63501;55.570;37.488;2023-11-19T08:25:46;99600.81;;;24.54;25.25
74936;BME280;63501;55.570;37.488;2023-11-19T08:28:14;99593.09;;;24.54;25.54
74936;BME280;63501;55.570;37.488;2023-11-19T08:30:41;99590.00;;;24.67;25.16
74936;BME280;63501;55.570;37.488;2023-11-19T08:33:09;99599.69;;;24.90;25.30
74936;BME280;63501;55.570;37.488;2023-11-19T08:35:36;99599.94;;;25.16;24.85
74936;BME280;63501;55.570;37.488;2023-11-19T08:38:03;99592.31;;;25.37;24.50
74936;BME280;63501;55.570;37.488;2023-11-19T08:40:30;99596.97;;;25.55;24.70
74936;BME280;63501;55.570;37.488;2023-11-19T08:42:57;99595.66;;;25.71;24.50
74936;BME280;63501;55.570;37.488;2023-11-19T08:45:25;99594.59;;;25.83;23.86
74936;BME280;63501;55.570;37.488;2023-11-19T08:47:52;99590.63;;;25.95;24.28
74936;BME280;63501;55.570;37.488;2023-11-19T08:50:18;99585.13;;;26.06;23.71
74936;BME280;63501;55.570;37.488;2023-11-19T08:52:45;99590.34;;;26.14;23.68
74936;BME280;63501;55.570;37.488;2023-11-19T08:55:14;99589.16;;;26.20;23.67
74936;BME280;63501;55.570;37.488;2023-11-19T08:57:40;99576.63;;;26.27;23.47
74936;BME280;63501;55.570;37.488;2023-11-19T09:00:09;99584.69;;;26.34;23.37
74936;BME280;63501;55.570;37.488;2023-11-19T09:02:41;99578.63;;;26.41;23.21
74936;BME280;63501;55.570;37.488;2023-11-19T09:05:09;99574.09;;;26.49;23.21
74936;BME280;63501;55.570;37.488;2023-11-19T09:07:36;99572.38;;;26.57;23.27
74936;BME280;63501;55.570;37.488;2023-11-19T09:10:03;99564.97;;;26.66;23.09
74936;BME280;63501;55.570;37.488;2023-11-19T09:12:30;99563.53;;;26.76;23.05
74936;BME280;63501;55.570;37.488;2023-11-19T09:14:57;99561.31;;;26.85;23.08
74936;BME280;63501;55.570;37.488;2023-11-19T09:17:24;99560.84;;;26.93;23.21
74936;BME280;63501;55.570;37.488;2023-11-19T09:19:52;99557.81;;;26.96;23.37
74936;BME280;63501;55.570;37.488;2023-11-19T09:22:19;99539.19;;;26.89;23.07
74936;BME280;63501;55.570;37.488;2023-11-19T09:24:46;99549.03;;;26.94;23.27
74936;BME280;63501;55.570;37.488;2023-11-19T09:27:13;99536.38;;;26.95;23.03
74936;BME280;63501;55.570;37.488;2023-11-19T09:29:40;99543.63;;;26.96;23.06
74936;BME280;63501;55.570;37.488;2023-11-19T09:32:08;99536.09;;;26.93;23.08
74936;BME280;63501;55.570;37.488;2023-11-19T09:34:35;99536.34;;;26.89;23.23
74936;BME280;63501;55.570;37.488;2023-11-19T09:37:03;99541.97;;;26.84;23.31
74936;BME280;63501;55.570;37.488;2023-11-19T09:39:30;99529.00;;;26.77;23.36
74936;BME280;63501;55.570;37.488;2023-11-19T09:41:57;99535.88;;;26.71;23.00
74936;BME280;63501;55.570;37.488;2023-11-19T09:44:24;99519.59;;;26.66;23.17
74936;BME280;63501;55.570;37.488;2023-11-19T09:46:51;99520.03;;;26.58;22.96
74936;BME280;63501;55.570;37.488;2023-11-19T09:49:21;99521.25;;;26.52;23.00
74936;BME280;63501;55.570;37.488;2023-11-19T09:51:49;99513.19;;;26.45;22.93
74936;BME280;63501;55.570;37.488;2023-11-19T09:54:17;99508.72;;;26.38;23.36
74936;BME280;63501;55.570;37.488;2023-11-19T09:56:44;99512.75;;;26.31;22.80
74936;BME280;63501;55.570;37.488;2023-11-19T09:59:11;99502.63;;;26.25;23.11
74936;BME280;63501;55.570;37.488;2023-11-19T10:01:40;99500.25;;;26.18;22.84
74936;BME280;63501;55.570;37.488;2023-11-19T10:04:08;99488.06;;;26.11;22.98
74936;BME280;63501;55.570;37.488;2023-11-19T10:06:35;99489.28;;;26.05;23.11
74936;BME280;63501;55.570;37.488;2023-11-19T10:09:02;99480.66;;;25.94;22.63
74936;BME280;63501;55.570;37.488;2023-11-19T10:11:32;99491.19;;;25.93;22.64
74936;BME280;63501;55.570;37.488;2023-11-19T10:13:58;99498.84;;;25.87;22.59
74936;BME280;63501;55.570;37.488;2023-11-19T10:16:28;99501.63;;;25.81;23.19
74936;BME280;63501;55.570;37.488;2023-11-19T10:18:56;99492.25;;;25.75;22.46
74936;BME280;63501;55.570;37.488;2023-11-19T10:21:23;99489.31;;;25.70;23.00
74936;BME280;63501;55.570;37.488;2023-11-19T10:23:53;99481.47;;;25.59;22.97
74936;BME280;63501;55.570;37.488;2023-11-19T10:26:22;99489.16;;;25.58;22.97
74936;BME280;63501;55.570;37.488;2023-11-19T10:28:56;99494.00;;;25.73;23.54
74936;BME280;63501;55.570;37.488;2023-11-19T10:31:24;99487.50;;;26.07;23.29
74936;BME280;63501;55.570;37.488;2023-11-19T10:33:51;99478.94;;;26.48;23.14
74936;BME280;63501;55.570;37.488;2023-11-19T10:36:18;99479.31;;;26.87;22.60
74936;BME280;63501;55.570;37.488;2023-11-19T10:38:51;99484.53;;;27.26;22.62
74936;BME280;63501;55.570;37.488;2023-11-19T10:41:28;99476.50;;;27.62;22.57
74936;BME280;63501;55.570;37.488;2023-11-19T10:43:57;99475.63;;;27.93;22.38
74936;BME280;63501;55.570;37.488;2023-11-19T10:46:24;99474.19;;;28.20;22.17
74936;BME280;63501;55.570;37.488;2023-11-19T10:49:07;99477.34;;;28.44;22.17
74936;BME280;63501;55.570;37.488;2023-11-19T10:51:36;99476.09;;;28.62;22.35
74936;BME280;63501;55.570;37.488;2023-11-19T10:54:02;99476.63;;;28.78;22.39
74936;BME280;63501;55.570;37.488;2023-11-19T10:56:31;99468.38;;;28.91;22.35
74936;BME280;63501;55.570;37.488;2023-11-19T10:59:02;99468.38;;;29.02;22.25
74936;BME280;63501;55.570;37.488;2023-11-19T11:01:34;99478.19;;;29.12;22.32
74936;BME280;63501;55.570;37.488;2023-11-19T11:04:12;99473.00;;;29.22;22.39
74936;BME280;63501;55.570;37.488;2023-11-19T11:06:40;99479.97;;;29.32;22.37
74936;BME280;63501;55.570;37.488;2023-11-19T11:09:11;99467.28;;;29.39;22.54
74936;BME280;63501;55.570;37.488;2023-11-19T11:11:44;99470.88;;;29.45;22.50
74936;BME280;63501;55.570;37.488;2023-11-19T11:14:14;99464.69;;;29.46;22.30
74936;BME280;63501;55.570;37.488;2023-11-19T11:16:46;99470.38;;;29.46;22.39
74936;BME280;63501;55.570;37.488;2023-11-19T11:19:13;99469.09;;;29.47;22.28
74936;BME280;63501;55.570;37.488;2023-11-19T11:21:43;99465.97;;;29.45;22.58
74936;BME280;63501;55.570;37.488;2023-11-19T11:24:24;99461.56;;;29.44;22.56
74936;BME280;63501;55.570;37.488;2023-11-19T11:27:05;99463.88;;;29.46;22.45
74936;BME280;63501;55.570;37.488;2023-11-19T11:29:42;99459.78;;;29.47;22.92
74936;BME280;63501;55.570;37.488;2023-11-19T11:32:16;99461.31;;;29.48;22.66
74936;BME280;63501;55.570;37.488;2023-11-19T11:35:08;99464.94;;;29.48;23.05
74936;BME280;63501;55.570;37.488;2023-11-19T11:37:42;99467.25;;;29.50;23.28
74936;BME280;63501;55.570;37.488;2023-11-19T11:40:15;99459.47;;;29.50;22.82
74936;BME280;63501;55.570;37.488;2023-11-19T11:42:46;99452.25;;;29.49;23.12
74936;BME280;63501;55.570;37.488;2023-11-19T11:45:20;99449.66;;;29.46;23.13
74936;BME280;63501;55.570;37.488;2023-11-19T11:48:24;99454.59;;;29.40;23.20
74936;BME280;63501;55.570;37.488;2023-11-19T11:50:53;99460.56;;;29.36;23.50
74936;BME280;63501;55.570;37.488;2023-11-19T11:53:19;99462.13;;;29.32;23.67
74936;BME280;63501;55.570;37.488;2023-11-19T11:55:54;99459.03;;;29.30;23.58
74936;BME280;63501;55.570;37.488;2023-11-19T11:58:31;99457.75;;;29.25;23.83
74936;BME280;63501;55.570;37.488;2023-11-19T12:01:01;99455.94;;;29.22;23.52
74936;BME280;63501;55.570;37.488;2023-11-19T12:03:37;99443.50;;;29.19;23.86
74936;BME280;63501;55.570;37.488;2023-11-19T12:06:04;99454.63;;;29.17;23.97
74936;BME280;63501;55.570;37.488;2023-11-19T12:08:31;99460.31;;;29.17;23.64
74936;BME280;63501;55.570;37.488;2023-11-19T12:11:01;99461.63;;;29.16;23.66
74936;BME280;63501;55.570;37.488;2023-11-19T12:13:52;99453.63;;;29.15;23.65
74936;BME280;63501;55.570;37.488;2023-11-19T12:16:22;99447.16;;;29.14;23.89
74936;BME280;63501;55.570;37.488;2023-11-19T12:18:49;99440.16;;;29.15;23.85
74936;BME280;63501;55.570;37.488;2023-11-19T12:21:29;99440.16;;;29.15;23.61
74936;BME280;63501;55.570;37.488;2023-11-19T12:23:57;99437.31;;;29.15;23.94
74936;BME280;63501;55.570;37.488;2023-11-19T12:26:38;99436.53;;;29.15;23.98
74936;BME280;63501;55.570;37.488;2023-11-19T12:29:05;99435.47;;;29.18;23.73
74936;BME280;63501;55.570;37.488;2023-11-19T12:31:36;99439.13;;;29.18;23.58
74936;BME280;63501;55.570;37.488;2023-11-19T12:34:06;99426.44;;;29.19;23.64
74936;BME280;63501;55.570;37.488;2023-11-19T12:36:36;99431.06;;;29.22;23.99
74936;BME280;63501;55.570;37.488;2023-11-19T12:39:04;99419.69;;;29.22;23.54
74936;BME280;63501;55.570;37.488;2023-11-19T12:41:48;99425.38;;;29.22;23.62
74936;BME280;63501;55.570;37.488;2023-11-19T12:44:17;99416.84;;;29.22;24.00
74936;BME280;63501;55.570;37.488;2023-11-19T12:46:46;99419.94;;;29.24;24.01
74936;BME280;63501;55.570;37.488;2023-11-19T12:49:12;99411.91;;;29.23;23.82
74936;BME280;63501;55.570;37.488;2023-11-19T12:51:39;99419.97;;;29.19;23.88
74936;BME280;63501;55.570;37.488;2023-11-19T12:54:06;99407.28;;;29.14;23.57
74936;BME280;63501;55.570;37.488;2023-11-19T12:56:36;99404.44;;;29.09;23.55
74936;BME280;63501;55.570;37.488;2023-11-19T12:59:10;99406.53;;;29.03;23.80
74936;BME280;63501;55.570;37.488;2023-11-19T13:01:54;99405.00;;;28.96;23.71